Disclaimer

Please do not use the information listed here in-flight or in-navigation, as they are not provided to us by the airports but are provided by volunteers, so they might be outdated.

Search


Regions


Airport information page

Radio informations:
Approach (APP) - 120.0 MHz
A/G VOICE RDO - 6673 MHz

Airport informations:
Latitude: 07° 44' 19.68" N
Longitude: 005° 04' 25.20" W
Elevation: 1230 feet - 375 meters
Operating hours: N/A
Operating agency: Military-civil joint use airport
Timezone: UTC 0
Fuel: Jet A1, without icing nhibitor.

Runway information:
03/21 - 10827 x 148 feet< - >3300 x 45 meters

Recent METARs:
DIBK 130100Z 20004KT 8000 NSC 24/23 Q1012 NOSIG
DIBK 130100Z 20004KT 8000 NSC 24/23 Q1012 NOSIG
DIBK 130100Z 20004KT 8000 NSC 24/23 Q1012 NOSIG

Airport on the map: